sensor_id;sensor_type;location;lat;lon;timestamp;temperature;humidity
37560;DHT22;23398;50.928;7.084;2023-04-21T00:00:54;11.40;95.80
37560;DHT22;23398;50.928;7.084;2023-04-21T00:03:20;11.40;95.70
37560;DHT22;23398;50.928;7.084;2023-04-21T00:05:50;11.40;95.70
37560;DHT22;23398;50.928;7.084;2023-04-21T00:08:16;11.40;95.70
37560;DHT22;23398;50.928;7.084;2023-04-21T00:10:43;11.40;95.70
37560;DHT22;23398;50.928;7.084;2023-04-21T00:13:09;11.40;95.80
37560;DHT22;23398;50.928;7.084;2023-04-21T00:15:35;11.30;95.80
37560;DHT22;23398;50.928;7.084;2023-04-21T00:18:00;11.30;95.80
37560;DHT22;23398;50.928;7.084;2023-04-21T00:20:26;11.30;95.80
37560;DHT22;23398;50.928;7.084;2023-04-21T00:22:52;11.40;95.90
37560;DHT22;23398;50.928;7.084;2023-04-21T00:25:18;11.30;95.80
37560;DHT22;23398;50.928;7.084;2023-04-21T00:27:44;11.30;95.80
37560;DHT22;23398;50.928;7.084;2023-04-21T00:30:10;11.30;95.80
37560;DHT22;23398;50.928;7.084;2023-04-21T00:32:36;11.30;95.80
37560;DHT22;23398;50.928;7.084;2023-04-21T00:35:01;11.30;95.70
37560;DHT22;23398;50.928;7.084;2023-04-21T00:37:27;11.30;95.80
37560;DHT22;23398;50.928;7.084;2023-04-21T00:39:53;11.20;95.70
37560;DHT22;23398;50.928;7.084;2023-04-21T00:42:18;11.20;95.70
37560;DHT22;23398;50.928;7.084;2023-04-21T00:44:44;11.20;95.70
37560;DHT22;23398;50.928;7.084;2023-04-21T00:47:10;11.20;95.70
37560;DHT22;23398;50.928;7.084;2023-04-21T00:49:36;11.20;95.80
37560;DHT22;23398;50.928;7.084;2023-04-21T00:52:04;11.10;95.70
37560;DHT22;23398;50.928;7.084;2023-04-21T00:54:30;11.20;96.00
37560;DHT22;23398;50.928;7.084;2023-04-21T00:56:56;11.10;96.00
37560;DHT22;23398;50.928;7.084;2023-04-21T00:59:23;11.10;96.10
37560;DHT22;23398;50.928;7.084;2023-04-21T01:01:48;11.10;96.10
37560;DHT22;23398;50.928;7.084;2023-04-21T01:04:14;11.10;96.20
37560;DHT22;23398;50.928;7.084;2023-04-21T01:06:40;11.20;96.20
37560;DHT22;23398;50.928;7.084;2023-04-21T01:09:07;11.20;96.30
37560;DHT22;23398;50.928;7.084;2023-04-21T01:11:32;11.20;96.30
37560;DHT22;23398;50.928;7.084;2023-04-21T01:13:58;11.20;96.30
37560;DHT22;23398;50.928;7.084;2023-04-21T01:16:24;11.20;96.30
37560;DHT22;23398;50.928;7.084;2023-04-21T01:18:51;11.20;96.20
37560;DHT22;23398;50.928;7.084;2023-04-21T01:21:18;11.20;96.20
37560;DHT22;23398;50.928;7.084;2023-04-21T01:23:44;11.20;96.20
37560;DHT22;23398;50.928;7.084;2023-04-21T01:26:10;11.20;96.10
37560;DHT22;23398;50.928;7.084;2023-04-21T01:28:36;11.20;96.10
37560;DHT22;23398;50.928;7.084;2023-04-21T01:31:01;11.20;96.00
37560;DHT22;23398;50.928;7.084;2023-04-21T01:33:27;11.20;96.00
37560;DHT22;23398;50.928;7.084;2023-04-21T01:35:53;11.20;96.00
37560;DHT22;23398;50.928;7.084;2023-04-21T01:38:20;11.20;96.00
37560;DHT22;23398;50.928;7.084;2023-04-21T01:40:51;11.20;96.00
37560;DHT22;23398;50.928;7.084;2023-04-21T01:43:19;11.20;96.20
37560;DHT22;23398;50.928;7.084;2023-04-21T01:45:47;11.20;96.20
37560;DHT22;23398;50.928;7.084;2023-04-21T01:48:12;11.20;96.20
37560;DHT22;23398;50.928;7.084;2023-04-21T01:50:38;11.20;96.30
37560;DHT22;23398;50.928;7.084;2023-04-21T01:53:04;11.20;96.30
37560;DHT22;23398;50.928;7.084;2023-04-21T01:55:29;11.20;96.40
37560;DHT22;23398;50.928;7.084;2023-04-21T01:57:55;11.20;96.40
37560;DHT22;23398;50.928;7.084;2023-04-21T02:00:24;11.20;96.40
37560;DHT22;23398;50.928;7.084;2023-04-21T02:02:49;11.20;96.40
37560;DHT22;23398;50.928;7.084;2023-04-21T02:05:15;11.20;96.40
37560;DHT22;23398;50.928;7.084;2023-04-21T02:07:40;11.30;96.50
37560;DHT22;23398;50.928;7.084;2023-04-21T02:10:06;11.30;96.50
37560;DHT22;23398;50.928;7.084;2023-04-21T02:12:32;11.30;96.40
37560;DHT22;23398;50.928;7.084;2023-04-21T02:14:57;11.30;96.40
37560;DHT22;23398;50.928;7.084;2023-04-21T02:17:23;11.30;96.30
37560;DHT22;23398;50.928;7.084;2023-04-21T02:19:49;11.30;96.30
37560;DHT22;23398;50.928;7.084;2023-04-21T02:22:14;11.30;96.30
37560;DHT22;23398;50.928;7.084;2023-04-21T02:24:40;11.30;96.20
37560;DHT22;23398;50.928;7.084;2023-04-21T02:27:06;11.30;96.20
37560;DHT22;23398;50.928;7.084;2023-04-21T02:29:31;11.30;96.20
37560;DHT22;23398;50.928;7.084;2023-04-21T02:31:57;11.30;96.20
37560;DHT22;23398;50.928;7.084;2023-04-21T02:34:22;11.30;96.20
37560;DHT22;23398;50.928;7.084;2023-04-21T02:36:48;11.30;96.10
37560;DHT22;23398;50.928;7.084;2023-04-21T02:39:14;11.20;96.00
37560;DHT22;23398;50.928;7.084;2023-04-21T02:41:39;11.20;96.00
37560;DHT22;23398;50.928;7.084;2023-04-21T02:44:05;11.20;95.80
37560;DHT22;23398;50.928;7.084;2023-04-21T02:46:30;11.20;95.80
37560;DHT22;23398;50.928;7.084;2023-04-21T02:48:56;11.10;95.60
37560;DHT22;23398;50.928;7.084;2023-04-21T02:51:22;11.10;95.60
37560;DHT22;23398;50.928;7.084;2023-04-21T02:53:48;11.10;95.60
37560;DHT22;23398;50.928;7.084;2023-04-21T02:56:14;11.10;95.60
37560;DHT22;23398;50.928;7.084;2023-04-21T02:58:39;11.00;95.60
37560;DHT22;23398;50.928;7.084;2023-04-21T03:01:05;11.00;95.60
37560;DHT22;23398;50.928;7.084;2023-04-21T03:03:31;10.90;95.50
37560;DHT22;23398;50.928;7.084;2023-04-21T03:06:01;10.90;95.50
37560;DHT22;23398;50.928;7.084;2023-04-21T03:08:28;10.90;95.50
37560;DHT22;23398;50.928;7.084;2023-04-21T03:10:54;10.80;95.40
37560;DHT22;23398;50.928;7.084;2023-04-21T03:13:20;10.80;95.20
37560;DHT22;23398;50.928;7.084;2023-04-21T03:15:46;10.70;95.00
37560;DHT22;23398;50.928;7.084;2023-04-21T03:18:12;10.70;94.90
37560;DHT22;23398;50.928;7.084;2023-04-21T03:20:37;10.60;94.70
37560;DHT22;23398;50.928;7.084;2023-04-21T03:23:03;10.50;94.50
37560;DHT22;23398;50.928;7.084;2023-04-21T03:25:28;10.50;94.50
37560;DHT22;23398;50.928;7.084;2023-04-21T03:27:54;10.40;94.40
37560;DHT22;23398;50.928;7.084;2023-04-21T03:30:22;10.30;94.40
37560;DHT22;23398;50.928;7.084;2023-04-21T03:32:48;10.20;94.40
37560;DHT22;23398;50.928;7.084;2023-04-21T03:35:15;10.10;94.40
37560;DHT22;23398;50.928;7.084;2023-04-21T03:37:40;10.00;94.30
37560;DHT22;23398;50.928;7.084;2023-04-21T03:40:06;10.00;94.40
37560;DHT22;23398;50.928;7.084;2023-04-21T03:42:33;9.90;95.00
37560;DHT22;23398;50.928;7.084;2023-04-21T03:45:06;9.80;95.10
37560;DHT22;23398;50.928;7.084;2023-04-21T03:47:32;9.80;95.70
37560;DHT22;23398;50.928;7.084;2023-04-21T03:49:58;9.70;95.20
37560;DHT22;23398;50.928;7.084;2023-04-21T03:52:24;9.70;95.30
37560;DHT22;23398;50.928;7.084;2023-04-21T03:54:49;9.70;95.30
37560;DHT22;23398;50.928;7.084;2023-04-21T03:57:15;9.60;95.20
37560;DHT22;23398;50.928;7.084;2023-04-21T03:59:41;9.60;95.20
37560;DHT22;23398;50.928;7.084;2023-04-21T04:02:07;9.50;95.10
37560;DHT22;23398;50.928;7.084;2023-04-21T04:04:33;9.40;95.00
37560;DHT22;23398;50.928;7.084;2023-04-21T04:06:59;9.40;95.30
37560;DHT22;23398;50.928;7.084;2023-04-21T04:09:24;9.30;95.00
37560;DHT22;23398;50.928;7.084;2023-04-21T04:11:50;9.30;95.10
37560;DHT22;23398;50.928;7.084;2023-04-21T04:14:16;9.20;95.20
37560;DHT22;23398;50.928;7.084;2023-04-21T04:16:41;9.20;95.30
37560;DHT22;23398;50.928;7.084;2023-04-21T04:19:07;9.20;95.40
37560;DHT22;23398;50.928;7.084;2023-04-21T04:21:33;9.10;95.40
37560;DHT22;23398;50.928;7.084;2023-04-21T04:23:59;9.10;95.50
37560;DHT22;23398;50.928;7.084;2023-04-21T04:26:27;9.10;95.50
37560;DHT22;23398;50.928;7.084;2023-04-21T04:28:52;9.10;95.60
37560;DHT22;23398;50.928;7.084;2023-04-21T04:31:21;9.10;95.60
37560;DHT22;23398;50.928;7.084;2023-04-21T04:33:46;9.10;95.60
37560;DHT22;23398;50.928;7.084;2023-04-21T04:36:12;9.10;95.60
37560;DHT22;23398;50.928;7.084;2023-04-21T04:38:38;9.00;95.50
37560;DHT22;23398;50.928;7.084;2023-04-21T04:41:04;9.00;95.30
37560;DHT22;23398;50.928;7.084;2023-04-21T04:43:33;8.90;95.10
37560;DHT22;23398;50.928;7.084;2023-04-21T04:46:01;8.90;95.00
37560;DHT22;23398;50.928;7.084;2023-04-21T04:48:27;8.90;95.40
37560;DHT22;23398;50.928;7.084;2023-04-21T04:50:52;8.90;95.20
37560;DHT22;23398;50.928;7.084;2023-04-21T04:53:18;8.80;95.20
37560;DHT22;23398;50.928;7.084;2023-04-21T04:55:44;8.80;95.30
37560;DHT22;23398;50.928;7.084;2023-04-21T04:58:10;8.80;95.50
37560;DHT22;23398;50.928;7.084;2023-04-21T05:00:36;8.80;95.60
37560;DHT22;23398;50.928;7.084;2023-04-21T05:03:02;8.80;95.80
37560;DHT22;23398;50.928;7.084;2023-04-21T05:05:27;8.80;95.90
37560;DHT22;23398;50.928;7.084;2023-04-21T05:07:53;8.80;96.00
37560;DHT22;23398;50.928;7.084;2023-04-21T05:10:18;8.80;96.10
37560;DHT22;23398;50.928;7.084;2023-04-21T05:12:44;8.90;96.10
37560;DHT22;23398;50.928;7.084;2023-04-21T05:15:09;8.90;96.10
37560;DHT22;23398;50.928;7.084;2023-04-21T05:17:35;8.90;96.10
37560;DHT22;23398;50.928;7.084;2023-04-21T05:20:03;9.00;96.10
37560;DHT22;23398;50.928;7.084;2023-04-21T05:22:29;9.00;96.10
37560;DHT22;23398;50.928;7.084;2023-04-21T05:24:55;9.00;96.10
37560;DHT22;23398;50.928;7.084;2023-04-21T05:27:20;9.10;96.10
37560;DHT22;23398;50.928;7.084;2023-04-21T05:29:46;9.10;96.00
37560;DHT22;23398;50.928;7.084;2023-04-21T05:32:11;9.10;96.00
37560;DHT22;23398;50.928;7.084;2023-04-21T05:34:37;9.10;95.90
37560;DHT22;23398;50.928;7.084;2023-04-21T05:37:03;9.20;96.00
37560;DHT22;23398;50.928;7.084;2023-04-21T05:39:29;9.20;96.00
37560;DHT22;23398;50.928;7.084;2023-04-21T05:41:55;9.20;96.00
37560;DHT22;23398;50.928;7.084;2023-04-21T05:44:20;9.30;96.10
37560;DHT22;23398;50.928;7.084;2023-04-21T05:46:46;9.30;96.10
37560;DHT22;23398;50.928;7.084;2023-04-21T05:49:11;9.30;96.10
37560;DHT22;23398;50.928;7.084;2023-04-21T05:51:37;9.40;96.20
37560;DHT22;23398;50.928;7.084;2023-04-21T05:54:03;9.50;96.30
37560;DHT22;23398;50.928;7.084;2023-04-21T05:56:28;9.50;96.40
37560;DHT22;23398;50.928;7.084;2023-04-21T05:58:54;9.50;96.40
37560;DHT22;23398;50.928;7.084;2023-04-21T06:01:19;9.60;96.50
37560;DHT22;23398;50.928;7.084;2023-04-21T06:03:45;9.70;96.60
37560;DHT22;23398;50.928;7.084;2023-04-21T06:06:13;9.80;96.60
37560;DHT22;23398;50.928;7.084;2023-04-21T06:08:39;9.90;96.60
37560;DHT22;23398;50.928;7.084;2023-04-21T06:11:04;10.00;96.10
37560;DHT22;23398;50.928;7.084;2023-04-21T06:13:30;10.00;95.90
37560;DHT22;23398;50.928;7.084;2023-04-21T06:15:56;10.10;95.70
37560;DHT22;23398;50.928;7.084;2023-04-21T06:18:22;10.20;95.70
37560;DHT22;23398;50.928;7.084;2023-04-21T06:20:52;10.30;95.70
37560;DHT22;23398;50.928;7.084;2023-04-21T06:23:18;10.40;95.90
37560;DHT22;23398;50.928;7.084;2023-04-21T06:25:44;10.50;95.90
37560;DHT22;23398;50.928;7.084;2023-04-21T06:28:09;10.60;96.00
37560;DHT22;23398;50.928;7.084;2023-04-21T06:30:35;10.70;96.00
37560;DHT22;23398;50.928;7.084;2023-04-21T06:33:01;10.80;96.10
37560;DHT22;23398;50.928;7.084;2023-04-21T06:35:26;11.00;96.20
37560;DHT22;23398;50.928;7.084;2023-04-21T06:37:52;11.20;96.30
37560;DHT22;23398;50.928;7.084;2023-04-21T06:40:17;11.30;96.20
37560;DHT22;23398;50.928;7.084;2023-04-21T06:42:43;11.50;96.10
37560;DHT22;23398;50.928;7.084;2023-04-21T06:45:09;11.70;96.00
37560;DHT22;23398;50.928;7.084;2023-04-21T06:47:34;11.80;95.70
37560;DHT22;23398;50.928;7.084;2023-04-21T06:50:00;12.00;95.40
37560;DHT22;23398;50.928;7.084;2023-04-21T06:52:26;12.20;95.10
37560;DHT22;23398;50.928;7.084;2023-04-21T06:54:52;12.30;94.80
37560;DHT22;23398;50.928;7.084;2023-04-21T06:57:17;12.50;94.70
37560;DHT22;23398;50.928;7.084;2023-04-21T06:59:43;12.70;94.70
37560;DHT22;23398;50.928;7.084;2023-04-21T07:02:08;12.80;94.50
37560;DHT22;23398;50.928;7.084;2023-04-21T07:04:34;13.00;94.30
37560;DHT22;23398;50.928;7.084;2023-04-21T07:07:00;13.20;94.40
37560;DHT22;23398;50.928;7.084;2023-04-21T07:09:25;13.50;94.60
37560;DHT22;23398;50.928;7.084;2023-04-21T07:11:53;13.70;94.30
37560;DHT22;23398;50.928;7.084;2023-04-21T07:14:19;14.10;93.90
37560;DHT22;23398;50.928;7.084;2023-04-21T07:16:45;14.30;93.70
37560;DHT22;23398;50.928;7.084;2023-04-21T07:19:10;14.60;93.20
37560;DHT22;23398;50.928;7.084;2023-04-21T07:21:36;14.90;92.50
37560;DHT22;23398;50.928;7.084;2023-04-21T07:24:02;15.20;92.10
37560;DHT22;23398;50.928;7.084;2023-04-21T07:26:28;15.40;91.40
37560;DHT22;23398;50.928;7.084;2023-04-21T07:28:53;15.60;90.70
37560;DHT22;23398;50.928;7.084;2023-04-21T07:31:23;15.90;90.00
37560;DHT22;23398;50.928;7.084;2023-04-21T07:33:48;16.00;88.00
37560;DHT22;23398;50.928;7.084;2023-04-21T07:36:15;16.20;86.10
37560;DHT22;23398;50.928;7.084;2023-04-21T07:38:41;16.30;84.90
37560;DHT22;23398;50.928;7.084;2023-04-21T07:41:11;16.40;85.10
37560;DHT22;23398;50.928;7.084;2023-04-21T07:43:37;16.60;84.90
37560;DHT22;23398;50.928;7.084;2023-04-21T07:46:03;16.70;83.10
37560;DHT22;23398;50.928;7.084;2023-04-21T07:48:29;16.80;81.40
37560;DHT22;23398;50.928;7.084;2023-04-21T07:50:55;16.90;79.80
37560;DHT22;23398;50.928;7.084;2023-04-21T07:53:22;17.00;81.90
37560;DHT22;23398;50.928;7.084;2023-04-21T07:55:48;17.30;86.10
37560;DHT22;23398;50.928;7.084;2023-04-21T07:58:13;17.70;86.70
37560;DHT22;23398;50.928;7.084;2023-04-21T08:00:40;18.30;85.20
37560;DHT22;23398;50.928;7.084;2023-04-21T08:03:05;18.80;81.50
37560;DHT22;23398;50.928;7.084;2023-04-21T08:05:31;19.20;77.30
37560;DHT22;23398;50.928;7.084;2023-04-21T08:07:57;19.50;74.00
37560;DHT22;23398;50.928;7.084;2023-04-21T08:10:22;19.70;71.10
37560;DHT22;23398;50.928;7.084;2023-04-21T08:12:49;19.80;70.20
37560;DHT22;23398;50.928;7.084;2023-04-21T08:15:15;19.90;68.40
37560;DHT22;23398;50.928;7.084;2023-04-21T08:17:40;19.90;67.60
37560;DHT22;23398;50.928;7.084;2023-04-21T08:20:07;19.90;67.20
37560;DHT22;23398;50.928;7.084;2023-04-21T08:22:32;19.90;67.10
37560;DHT22;23398;50.928;7.084;2023-04-21T08:24:59;19.90;66.30
37560;DHT22;23398;50.928;7.084;2023-04-21T08:27:25;20.00;65.80
37560;DHT22;23398;50.928;7.084;2023-04-21T08:29:51;20.00;66.20
37560;DHT22;23398;50.928;7.084;2023-04-21T08:32:16;20.00;66.30
37560;DHT22;23398;50.928;7.084;2023-04-21T08:34:48;19.60;66.20
37560;DHT22;23398;50.928;7.084;2023-04-21T08:37:14;20.20;67.90
37560;DHT22;23398;50.928;7.084;2023-04-21T08:39:40;20.50;70.20
37560;DHT22;23398;50.928;7.084;2023-04-21T08:42:07;20.90;71.40
37560;DHT22;23398;50.928;7.084;2023-04-21T08:44:32;21.50;68.70
37560;DHT22;23398;50.928;7.084;2023-04-21T08:46:58;22.00;66.40
37560;DHT22;23398;50.928;7.084;2023-04-21T08:49:28;22.50;63.40
37560;DHT22;23398;50.928;7.084;2023-04-21T08:51:54;22.80;61.60
37560;DHT22;23398;50.928;7.084;2023-04-21T08:54:20;23.10;61.40
37560;DHT22;23398;50.928;7.084;2023-04-21T08:56:47;23.40;62.30
37560;DHT22;23398;50.928;7.084;2023-04-21T08:59:13;23.80;62.90
37560;DHT22;23398;50.928;7.084;2023-04-21T09:02:08;24.50;63.20
37560;DHT22;23398;50.928;7.084;2023-04-21T09:04:36;25.20;60.30
37560;DHT22;23398;50.928;7.084;2023-04-21T09:07:02;25.90;58.90
37560;DHT22;23398;50.928;7.084;2023-04-21T09:09:27;26.40;57.60
37560;DHT22;23398;50.928;7.084;2023-04-21T09:11:54;26.90;57.00
37560;DHT22;23398;50.928;7.084;2023-04-21T09:14:21;27.60;56.00
37560;DHT22;23398;50.928;7.084;2023-04-21T09:16:58;28.20;55.00
37560;DHT22;23398;50.928;7.084;2023-04-21T09:19:29;28.90;52.30
37560;DHT22;23398;50.928;7.084;2023-04-21T09:21:55;29.40;51.60
37560;DHT22;23398;50.928;7.084;2023-04-21T09:24:21;29.90;51.80
37560;DHT22;23398;50.928;7.084;2023-04-21T09:26:50;30.50;51.40
37560;DHT22;23398;50.928;7.084;2023-04-21T09:29:16;31.00;49.70
37560;DHT22;23398;50.928;7.084;2023-04-21T09:31:43;31.40;48.10
37560;DHT22;23398;50.928;7.084;2023-04-21T09:34:20;31.70;47.90
37560;DHT22;23398;50.928;7.084;2023-04-21T09:36:46;32.10;47.00
37560;DHT22;23398;50.928;7.084;2023-04-21T09:39:12;32.40;46.00
37560;DHT22;23398;50.928;7.084;2023-04-21T09:41:38;32.60;45.30
37560;DHT22;23398;50.928;7.084;2023-04-21T09:44:04;32.90;44.20
37560;DHT22;23398;50.928;7.084;2023-04-21T09:46:34;33.20;43.50
37560;DHT22;23398;50.928;7.084;2023-04-21T09:49:01;33.30;43.20
37560;DHT22;23398;50.928;7.084;2023-04-21T09:51:28;33.40;42.40
37560;DHT22;23398;50.928;7.084;2023-04-21T09:53:58;33.30;41.80
37560;DHT22;23398;50.928;7.084;2023-04-21T09:56:24;33.20;41.70
37560;DHT22;23398;50.928;7.084;2023-04-21T09:58:52;33.30;41.90
37560;DHT22;23398;50.928;7.084;2023-04-21T10:01:19;33.50;42.90
37560;DHT22;23398;50.928;7.084;2023-04-21T10:03:47;33.80;42.00
37560;DHT22;23398;50.928;7.084;2023-04-21T10:06:13;34.20;40.80
37560;DHT22;23398;50.928;7.084;2023-04-21T10:08:39;34.60;40.40
37560;DHT22;23398;50.928;7.084;2023-04-21T10:11:06;35.00;40.40
37560;DHT22;23398;50.928;7.084;2023-04-21T10:13:32;35.20;38.80
37560;DHT22;23398;50.928;7.084;2023-04-21T10:16:06;35.20;37.60
37560;DHT22;23398;50.928;7.084;2023-04-21T10:18:41;35.00;36.80
37560;DHT22;23398;50.928;7.084;2023-04-21T10:21:08;34.70;36.40
37560;DHT22;23398;50.928;7.084;2023-04-21T10:23:41;34.20;36.00
37560;DHT22;23398;50.928;7.084;2023-04-21T10:26:11;33.70;36.30
37560;DHT22;23398;50.928;7.084;2023-04-21T10:28:41;33.00;37.30
37560;DHT22;23398;50.928;7.084;2023-04-21T10:31:36;32.40;36.20
37560;DHT22;23398;50.928;7.084;2023-04-21T10:34:13;31.70;38.40
37560;DHT22;23398;50.928;7.084;2023-04-21T10:39:31;30.70;38.80
37560;DHT22;23398;50.928;7.084;2023-04-21T10:44:41;29.70;39.50
37560;DHT22;23398;50.928;7.084;2023-04-21T10:47:07;29.20;40.00
37560;DHT22;23398;50.928;7.084;2023-04-21T10:49:37;28.80;40.70
37560;DHT22;23398;50.928;7.084;2023-04-21T10:52:05;28.30;40.70
37560;DHT22;23398;50.928;7.084;2023-04-21T10:57:12;27.50;41.90
37560;DHT22;23398;50.928;7.084;2023-04-21T10:59:39;27.20;42.80
37560;DHT22;23398;50.928;7.084;2023-04-21T11:02:05;26.90;43.00
37560;DHT22;23398;50.928;7.084;2023-04-21T11:04:34;26.70;43.60
37560;DHT22;23398;50.928;7.084;2023-04-21T11:07:21;26.60;44.00
37560;DHT22;23398;50.928;7.084;2023-04-21T11:09:55;26.30;43.60
37560;DHT22;23398;50.928;7.084;2023-04-21T11:12:21;26.20;43.20
37560;DHT22;23398;50.928;7.084;2023-04-21T11:14:46;25.90;43.20
37560;DHT22;23398;50.928;7.084;2023-04-21T11:17:17;25.70;43.60
37560;DHT22;23398;50.928;7.084;2023-04-21T11:19:50;25.40;43.90
37560;DHT22;23398;50.928;7.084;2023-04-21T11:22:17;25.20;44.00
37560;DHT22;23398;50.928;7.084;2023-04-21T11:24:47;25.00;45.00
37560;DHT22;23398;50.928;7.084;2023-04-21T11:27:13;24.80;44.90
37560;DHT22;23398;50.928;7.084;2023-04-21T11:29:40;24.70;45.20
37560;DHT22;23398;50.928;7.084;2023-04-21T11:32:06;24.60;45.80
37560;DHT22;23398;50.928;7.084;2023-04-21T11:34:33;24.60;45.80
37560;DHT22;23398;50.928;7.084;2023-04-21T11:36:58;24.50;45.30
37560;DHT22;23398;50.928;7.084;2023-04-21T11:39:24;24.40;45.70
37560;DHT22;23398;50.928;7.084;2023-04-21T11:41:50;24.40;45.80
37560;DHT22;23398;50.928;7.084;2023-04-21T11:44:33;24.50;46.00
37560;DHT22;23398;50.928;7.084;2023-04-21T11:47:00;24.40;45.70
37560;DHT22;23398;50.928;7.084;2023-04-21T11:49:43;24.50;46.30
37560;DHT22;23398;50.928;7.084;2023-04-21T11:52:09;24.30;46.20
37560;DHT22;23398;50.928;7.084;2023-04-21T11:54:34;24.20;46.90
37560;DHT22;23398;50.928;7.084;2023-04-21T11:57:00;24.00;46.30
37560;DHT22;23398;50.928;7.084;2023-04-21T11:59:26;23.90;46.40
37560;DHT22;23398;50.928;7.084;2023-04-21T12:01:54;23.70;46.40
37560;DHT22;23398;50.928;7.084;2023-04-21T12:04:24;23.70;47.10
37560;DHT22;23398;50.928;7.084;2023-04-21T12:06:58;23.40;46.90
37560;DHT22;23398;50.928;7.084;2023-04-21T12:09:24;23.30;47.30
37560;DHT22;23398;50.928;7.084;2023-04-21T12:11:52;23.20;47.80
37560;DHT22;23398;50.928;7.084;2023-04-21T12:14:22;23.20;48.10
37560;DHT22;23398;50.928;7.084;2023-04-21T12:16:51;23.10;48.60
37560;DHT22;23398;50.928;7.084;2023-04-21T12:21:53;23.00;48.00
37560;DHT22;23398;50.928;7.084;2023-04-21T12:24:20;23.00;48.30
37560;DHT22;23398;50.928;7.084;2023-04-21T12:26:46;22.90;48.10
37560;DHT22;23398;50.928;7.084;2023-04-21T12:29:12;22.80;48.10
37560;DHT22;23398;50.928;7.084;2023-04-21T12:31:37;22.70;48.20
37560;DHT22;23398;50.928;7.084;2023-04-21T12:34:03;22.60;48.70
37560;DHT22;23398;50.928;7.084;2023-04-21T12:36:29;22.60;49.00
37560;DHT22;23398;50.928;7.084;2023-04-21T12:38:55;22.50;49.40
37560;DHT22;23398;50.928;7.084;2023-04-21T12:41:20;22.60;49.70
37560;DHT22;23398;50.928;7.084;2023-04-21T12:43:46;22.70;49.70
37560;DHT22;23398;50.928;7.084;2023-04-21T12:46:11;22.80;50.10
37560;DHT22;23398;50.928;7.084;2023-04-21T12:48:37;23.00;49.20
37560;DHT22;23398;50.928;7.084;2023-04-21T12:51:02;23.00;49.90
37560;DHT22;23398;50.928;7.084;2023-04-21T12:53:28;23.10;49.40
37560;DHT22;23398;50.928;7.084;2023-04-21T12:55:54;23.20;49.00
37560;DHT22;23398;50.928;7.084;2023-04-21T12:58:19;23.30;49.00
37560;DHT22;23398;50.928;7.084;2023-04-21T13:00:45;23.40;48.40
37560;DHT22;23398;50.928;7.084;2023-04-21T13:03:10;23.40;47.80
37560;DHT22;23398;50.928;7.084;2023-04-21T13:05:36;23.30;47.00
37560;DHT22;23398;50.928;7.084;2023-04-21T13:08:01;23.20;47.40
37560;DHT22;23398;50.928;7.084;2023-04-21T13:10:27;23.20;47.80
37560;DHT22;23398;50.928;7.084;2023-04-21T13:12:53;23.00;48.30
37560;DHT22;23398;50.928;7.084;2023-04-21T13:15:18;23.10;48.50
37560;DHT22;23398;50.928;7.084;2023-04-21T13:17:44;22.80;48.20
37560;DHT22;23398;50.928;7.084;2023-04-21T13:20:10;22.70;48.30
37560;DHT22;23398;50.928;7.084;2023-04-21T13:22:36;22.60;48.30
37560;DHT22;23398;50.928;7.084;2023-04-21T13:25:02;22.60;48.40
37560;DHT22;23398;50.928;7.084;2023-04-21T13:27:29;22.50;48.70
37560;DHT22;23398;50.928;7.084;2023-04-21T13:29:56;22.40;48.60
37560;DHT22;23398;50.928;7.084;2023-04-21T13:32:21;22.30;48.80
37560;DHT22;23398;50.928;7.084;2023-04-21T13:34:47;22.30;48.80
37560;DHT22;23398;50.928;7.084;2023-04-21T13:37:12;22.20;49.00
37560;DHT22;23398;50.928;7.084;2023-04-21T13:39:40;22.10;48.90
37560;DHT22;23398;50.928;7.084;2023-04-21T13:42:06;22.10;48.90
37560;DHT22;23398;50.928;7.084;2023-04-21T13:44:32;22.00;48.80
37560;DHT22;23398;50.928;7.084;2023-04-21T13:46:58;21.90;48.80
37560;DHT22;23398;50.928;7.084;2023-04-21T13:49:23;21.80;48.20
37560;DHT22;23398;50.928;7.084;2023-04-21T13:51:49;21.80;48.70
37560;DHT22;23398;50.928;7.084;2023-04-21T13:54:15;21.70;49.00
37560;DHT22;23398;50.928;7.084;2023-04-21T13:56:43;21.60;49.60
37560;DHT22;23398;50.928;7.084;2023-04-21T13:59:09;21.60;49.80
37560;DHT22;23398;50.928;7.084;2023-04-21T14:01:35;21.60;50.00
37560;DHT22;23398;50.928;7.084;2023-04-21T14:04:02;21.70;49.70
37560;DHT22;23398;50.928;7.084;2023-04-21T14:06:27;21.70;49.60
37560;DHT22;23398;50.928;7.084;2023-04-21T14:08:53;21.70;49.50
37560;DHT22;23398;50.928;7.084;2023-04-21T14:11:19;21.70;49.30
37560;DHT22;23398;50.928;7.084;2023-04-21T14:13:45;21.70;49.10
37560;DHT22;23398;50.928;7.084;2023-04-21T14:16:10;21.60;49.30
37560;DHT22;23398;50.928;7.084;2023-04-21T14:18:37;21.60;49.40
37560;DHT22;23398;50.928;7.084;2023-04-21T14:21:05;21.60;49.20
37560;DHT22;23398;50.928;7.084;2023-04-21T14:23:30;21.60;48.70
37560;DHT22;23398;50.928;7.084;2023-04-21T14:25:56;21.60;49.10
37560;DHT22;23398;50.928;7.084;2023-04-21T14:28:21;21.70;49.20
37560;DHT22;23398;50.928;7.084;2023-04-21T14:30:47;21.80;49.50
37560;DHT22;23398;50.928;7.084;2023-04-21T14:33:12;21.80;49.00
37560;DHT22;23398;50.928;7.084;2023-04-21T14:35:38;21.90;48.70
37560;DHT22;23398;50.928;7.084;2023-04-21T14:38:04;22.00;48.70
37560;DHT22;23398;50.928;7.084;2023-04-21T14:40:29;22.00;48.30
37560;DHT22;23398;50.928;7.084;2023-04-21T14:42:55;22.00;48.10
37560;DHT22;23398;50.928;7.084;2023-04-21T14:45:20;21.90;47.90
37560;DHT22;23398;50.928;7.084;2023-04-21T14:47:46;21.90;48.10
37560;DHT22;23398;50.928;7.084;2023-04-21T14:50:11;21.40;47.50
37560;DHT22;23398;50.928;7.084;2023-04-21T14:52:37;21.80;47.70
37560;DHT22;23398;50.928;7.084;2023-04-21T14:55:03;21.80;48.00
37560;DHT22;23398;50.928;7.084;2023-04-21T14:57:28;21.80;48.50
37560;DHT22;23398;50.928;7.084;2023-04-21T14:59:54;21.80;48.00
37560;DHT22;23398;50.928;7.084;2023-04-21T15:02:20;21.90;47.60
37560;DHT22;23398;50.928;7.084;2023-04-21T15:04:46;21.90;47.30
37560;DHT22;23398;50.928;7.084;2023-04-21T15:07:12;22.00;47.20
37560;DHT22;23398;50.928;7.084;2023-04-21T15:09:37;22.10;47.20
37560;DHT22;23398;50.928;7.084;2023-04-21T15:12:13;22.00;47.00
37560;DHT22;23398;50.928;7.084;2023-04-21T15:14:39;22.00;47.10
37560;DHT22;23398;50.928;7.084;2023-04-21T15:17:05;22.00;47.10
37560;DHT22;23398;50.928;7.084;2023-04-21T15:19:31;22.00;47.30
37560;DHT22;23398;50.928;7.084;2023-04-21T15:21:57;21.90;46.90
37560;DHT22;23398;50.928;7.084;2023-04-21T15:24:23;21.90;46.80
37560;DHT22;23398;50.928;7.084;2023-04-21T15:26:48;21.80;46.80
37560;DHT22;23398;50.928;7.084;2023-04-21T15:29:14;21.80;47.20
37560;DHT22;23398;50.928;7.084;2023-04-21T15:31:39;21.70;47.40
37560;DHT22;23398;50.928;7.084;2023-04-21T15:34:05;21.70;47.50
37560;DHT22;23398;50.928;7.084;2023-04-21T15:36:31;21.60;47.50
37560;DHT22;23398;50.928;7.084;2023-04-21T15:38:57;21.50;47.60